Time;durP1;ratioP1;P1;durP2;ratioP2;P2;SDS_P1;SDS_P2;PMS_P1;PMS_P2;Temp;Humidity;BMP_temperature;BMP_pressure;BME280_temperature;BME280_humidity;BME280_pressure;Samples;Min_cycle;Max_cycle;Signal;HPM_P1;HPM_P2
2023/05/07 00:00:49;;;;;;;;;;;;;;;15.92;nan;102362.56;5021009;28;19948;-84
2023/05/07 00:03:15;;;;;;;;;;;;;;;15.94;nan;102356.91;5019348;28;19916;-84
2023/05/07 00:05:41;;;;;;;;;;;;;;;15.91;nan;102360.13;5011206;28;19971;-84
2023/05/07 00:08:06;;;;;;;;;;;;;;;15.90;nan;102359.28;5022031;28;20011;-84
2023/05/07 00:10:32;;;;;;;;;;;;;;;15.91;nan;102366.34;5015689;28;20330;-84
2023/05/07 00:12:57;;;;;;;;;;;;;;;15.91;nan;102360.94;5015801;28;20351;-84
2023/05/07 00:15:22;;;;;;;;;;;;;;;15.92;nan;102359.88;5018397;28;19978;-84
2023/05/07 00:17:48;;;;;;;;;;;;;;;15.92;nan;102356.34;5014266;28;19925;-84
2023/05/07 00:20:13;;;;;;;;;;;;;;;15.89;nan;102357.66;5021085;28;20574;-84
2023/05/07 00:22:38;;;;;;;;;;;;;;;15.86;nan;102360.84;5015644;28;20326;-84
2023/05/07 00:25:04;;;;;;;;;;;;;;;15.80;nan;102364.53;5015236;28;19921;-84
2023/05/07 00:27:30;;;;;;;;;;;;;;;15.80;nan;102361.00;5011532;28;19925;-84
2023/05/07 00:29:55;;;;;;;;;;;;;;;15.77;nan;102367.72;5011316;28;19987;-84
2023/05/07 00:32:21;;;;;;;;;;;;;;;15.71;nan;102361.41;5020078;28;19917;-84
2023/05/07 00:34:46;;;;;;;;;;;;;;;15.70;nan;102364.34;5020614;28;19925;-84
2023/05/07 00:37:11;;;;;;;;;;;;;;;15.69;nan;102365.41;5017666;28;19917;-84
2023/05/07 00:39:37;;;;;;;;;;;;;;;15.69;nan;102362.72;5012676;28;19921;-84
2023/05/07 00:42:02;;;;;;;;;;;;;;;15.67;nan;102362.13;5013971;28;19967;-84
2023/05/07 00:44:29;;;;;;;;;;;;;;;15.64;nan;102357.22;5020393;28;19921;-84
2023/05/07 00:46:55;;;;;;;;;;;;;;;15.64;nan;102357.22;5012829;28;20395;-84
2023/05/07 00:49:21;;;;;;;;;;;;;;;15.62;nan;102362.88;5019044;28;19916;-84
2023/05/07 00:51:47;;;;;;;;;;;;;;;15.63;nan;102363.69;5014456;28;19918;-84
2023/05/07 00:54:13;;;;;;;;;;;;;;;15.63;nan;102366.41;5016551;28;19921;-84
2023/05/07 00:56:39;;;;;;;;;;;;;;;15.63;nan;102366.41;5020349;28;19923;-84
2023/05/07 00:59:05;;;;;;;;;;;;;;;15.64;nan;102368.84;5015685;28;19925;-83
2023/05/07 01:01:31;;;;;;;;;;;;;;;15.65;nan;102366.97;5017901;28;19921;-84
2023/05/07 01:03:57;;;;;;;;;;;;;;;15.67;nan;102375.66;5016057;28;19917;-84
2023/05/07 01:06:23;;;;;;;;;;;;;;;15.67;nan;102378.34;5018000;28;20381;-84
2023/05/07 01:08:50;;;;;;;;;;;;;;;15.66;nan;102382.94;5014277;28;19917;-84
2023/05/07 01:11:16;;;;;;;;;;;;;;;15.66;nan;102385.63;5020752;28;19917;-84
2023/05/07 01:13:42;;;;;;;;;;;;;;;15.65;nan;102384.00;5015800;28;20654;-84
2023/05/07 01:16:09;;;;;;;;;;;;;;;15.64;nan;102382.38;5014493;28;20016;-84
2023/05/07 01:18:35;;;;;;;;;;;;;;;15.65;nan;102378.59;5014116;28;20471;-84
2023/05/07 01:21:01;;;;;;;;;;;;;;;15.61;nan;102384.69;5018411;28;19917;-84
2023/05/07 01:23:27;;;;;;;;;;;;;;;15.54;nan;102381.31;5021398;28;20276;-84
2023/05/07 01:25:53;;;;;;;;;;;;;;;15.48;nan;102382.28;5020380;28;19940;-84
2023/05/07 01:28:19;;;;;;;;;;;;;;;15.43;nan;102380.28;5017400;28;19963;-84
2023/05/07 01:30:46;;;;;;;;;;;;;;;15.40;nan;102381.59;5020225;28;19925;-84
2023/05/07 01:33:13;;;;;;;;;;;;;;;15.39;nan;102384.53;5018470;28;19921;-84
2023/05/07 01:35:41;;;;;;;;;;;;;;;15.36;nan;102380.44;5019751;28;19921;-84
2023/05/07 01:38:07;;;;;;;;;;;;;;;15.35;nan;102381.50;5027277;28;19925;-84
2023/05/07 01:40:34;;;;;;;;;;;;;;;15.34;nan;102387.13;5015325;28;19921;-84
2023/05/07 01:42:59;;;;;;;;;;;;;;;15.29;nan;102385.16;5019416;28;19917;-84
2023/05/07 01:45:25;;;;;;;;;;;;;;;15.27;nan;102392.69;5017073;28;20394;-84
2023/05/07 01:47:52;;;;;;;;;;;;;;;15.27;nan;102381.88;5020942;28;19931;-84
2023/05/07 01:50:18;;;;;;;;;;;;;;;15.25;nan;102383.97;5020941;28;19974;-84
2023/05/07 01:52:44;;;;;;;;;;;;;;;15.23;nan;102377.19;5020732;28;20303;-84
2023/05/07 01:55:09;;;;;;;;;;;;;;;15.21;nan;102380.13;5019821;28;19917;-84
2023/05/07 01:57:35;;;;;;;;;;;;;;;15.15;nan;102389.19;5019588;28;20538;-84
2023/05/07 02:00:00;;;;;;;;;;;;;;;15.11;nan;102380.75;5022621;28;19921;-84
2023/05/07 02:02:26;;;;;;;;;;;;;;;15.08;nan;102401.97;5018696;28;19960;-84
2023/05/07 02:04:51;;;;;;;;;;;;;;;15.02;nan;102401.06;5017237;28;20326;-84
2023/05/07 02:07:16;;;;;;;;;;;;;;;14.98;nan;102399.91;5019410;28;19917;-84
2023/05/07 02:09:42;;;;;;;;;;;;;;;14.95;nan;102399.56;5016886;28;19967;-84
2023/05/07 02:12:07;;;;;;;;;;;;;;;14.94;nan;102406.84;5011518;28;19918;-84
2023/05/07 02:14:32;;;;;;;;;;;;;;;14.95;nan;102404.97;5012987;28;19921;-84
2023/05/07 02:16:58;;;;;;;;;;;;;;;14.94;nan;102395.22;5011851;28;19918;-84
2023/05/07 02:19:23;;;;;;;;;;;;;;;14.92;nan;102390.06;5017122;28;20412;-84
2023/05/07 02:21:48;;;;;;;;;;;;;;;14.86;nan;102395.56;5015773;28;19924;-84
2023/05/07 02:24:14;;;;;;;;;;;;;;;14.81;nan;102394.41;5013314;28;20044;-84
2023/05/07 02:26:42;;;;;;;;;;;;;;;14.74;nan;102399.13;5013840;28;19917;-84
2023/05/07 02:29:08;;;;;;;;;;;;;;;14.70;nan;102395.22;5017596;28;19971;-84
2023/05/07 02:31:33;;;;;;;;;;;;;;;14.68;nan;102405.44;5019035;28;20358;-84
2023/05/07 02:33:59;;;;;;;;;;;;;;;14.64;nan;102400.75;5017611;28;19921;-84
2023/05/07 02:36:25;;;;;;;;;;;;;;;14.62;nan;102414.47;5016665;28;20363;-84
2023/05/07 02:38:50;;;;;;;;;;;;;;;14.60;nan;102419.28;5020453;28;19967;-84
2023/05/07 02:41:15;;;;;;;;;;;;;;;14.57;nan;102417.06;5020134;28;19943;-84
2023/05/07 02:43:41;;;;;;;;;;;;;;;14.54;nan;102414.81;5021488;28;19921;-84
2023/05/07 02:46:08;;;;;;;;;;;;;;;14.49;nan;102415.50;5017413;28;19921;-84
2023/05/07 02:48:33;;;;;;;;;;;;;;;14.49;nan;102415.50;5019988;28;20322;-84
2023/05/07 02:50:59;;;;;;;;;;;;;;;14.50;nan;102419.03;5017751;28;19917;-84
2023/05/07 02:53:27;;;;;;;;;;;;;;;14.52;nan;102423.13;5013938;28;19921;-84
2023/05/07 02:55:56;;;;;;;;;;;;;;;14.54;nan;102422.91;5020130;28;20438;-83
2023/05/07 02:58:22;;;;;;;;;;;;;;;14.56;nan;102426.22;5014465;28;19945;-84
2023/05/07 03:00:47;;;;;;;;;;;;;;;14.57;nan;102429.72;5012611;28;19949;-84
2023/05/07 03:03:13;;;;;;;;;;;;;;;14.57;nan;102433.25;5011320;28;20414;-84
2023/05/07 03:05:38;;;;;;;;;;;;;;;14.56;nan;102428.91;5012577;28;19917;-84
2023/05/07 03:08:03;;;;;;;;;;;;;;;14.54;nan;102431.00;5011256;28;20429;-84
2023/05/07 03:10:29;;;;;;;;;;;;;;;14.50;nan;102419.03;5020556;28;19968;-84
2023/05/07 03:12:55;;;;;;;;;;;;;;;14.47;nan;102432.97;5015447;28;19967;-84
2023/05/07 03:15:21;;;;;;;;;;;;;;;14.42;nan;102425.56;5013748;28;19921;-84
2023/05/07 03:17:46;;;;;;;;;;;;;;;14.40;nan;102434.94;5017490;28;20055;-84
2023/05/07 03:20:12;;;;;;;;;;;;;;;14.36;nan;102433.75;5015687;28;20028;-84
2023/05/07 03:22:38;;;;;;;;;;;;;;;14.30;nan;102416.63;5016447;28;19917;-84
2023/05/07 03:27:36;;;;;;;;;;;;;;;14.25;nan;102432.69;4981236;28;20308;-84
2023/05/07 03:30:01;;;;;;;;;;;;;;;14.25;nan;102434.56;4998203;28;19925;-84
2023/05/07 03:32:26;;;;;;;;;;;;;;;14.19;nan;102422.84;4998030;28;20170;-84
2023/05/07 03:34:52;;;;;;;;;;;;;;;14.14;nan;102425.38;4993637;28;19926;-84
2023/05/07 03:37:17;;;;;;;;;;;;;;;14.13;nan;102427.25;4998925;28;20000;-84
2023/05/07 03:39:45;;;;;;;;;;;;;;;14.12;nan;102430.19;4993909;28;20115;-84
2023/05/07 03:42:10;;;;;;;;;;;;;;;14.11;nan;102434.75;5000289;28;20020;-84
2023/05/07 03:44:36;;;;;;;;;;;;;;;14.10;nan;102437.69;4993027;28;20024;-84
2023/05/07 03:47:01;;;;;;;;;;;;;;;14.08;nan;102432.53;4996946;28;19925;-84
2023/05/07 03:49:27;;;;;;;;;;;;;;;14.09;nan;102433.34;4997139;28;19925;-84
2023/05/07 03:51:52;;;;;;;;;;;;;;;14.07;nan;102433.59;4999484;28;20321;-84
2023/05/07 03:54:17;;;;;;;;;;;;;;;14.09;nan;102438.75;4995163;28;20397;-84
2023/05/07 03:56:43;;;;;;;;;;;;;;;14.09;nan;102444.97;4993391;28;19929;-84
2023/05/07 03:59:08;;;;;;;;;;;;;;;14.11;nan;102442.03;4995042;28;20291;-84
2023/05/07 04:01:33;;;;;;;;;;;;;;;14.10;nan;102435.00;4996662;28;19928;-84
2023/05/07 04:03:59;;;;;;;;;;;;;;;14.11;nan;102447.41;4991474;28;19953;-84
2023/05/07 04:06:24;;;;;;;;;;;;;;;14.11;nan;102440.16;4994568;28;19972;-84
2023/05/07 04:08:50;;;;;;;;;;;;;;;14.12;nan;102443.66;5010631;28;19918;-84
2023/05/07 04:11:15;;;;;;;;;;;;;;;14.13;nan;102446.13;4998997;28;19984;-84
2023/05/07 04:13:40;;;;;;;;;;;;;;;14.19;nan;102445.22;4997837;28;20326;-84
2023/05/07 04:16:06;;;;;;;;;;;;;;;14.26;nan;102449.69;4991801;28;20020;-84
2023/05/07 04:18:31;;;;;;;;;;;;;;;14.29;nan;102454.63;4992361;28;20029;-84
2023/05/07 04:20:57;;;;;;;;;;;;;;;14.30;nan;102457.06;4994325;28;19922;-84
2023/05/07 04:23:22;;;;;;;;;;;;;;;14.35;nan;102454.50;4990617;28;19922;-84
2023/05/07 04:25:47;;;;;;;;;;;;;;;14.38;nan;102464.84;4995361;28;20350;-84
2023/05/07 04:28:13;;;;;;;;;;;;;;;14.44;nan;102463.13;4993399;28;19933;-84
2023/05/07 04:30:39;;;;;;;;;;;;;;;14.44;nan;102463.94;4996357;28;19925;-84
2023/05/07 04:33:07;;;;;;;;;;;;;;;14.51;nan;102470.03;4997263;28;20407;-84
2023/05/07 04:35:33;;;;;;;;;;;;;;;14.59;nan;102470.78;4992557;28;20015;-84
2023/05/07 04:37:58;;;;;;;;;;;;;;;14.64;nan;102477.09;4998446;28;20419;-84
2023/05/07 04:40:23;;;;;;;;;;;;;;;14.71;nan;102469.72;4994549;28;19928;-84
2023/05/07 04:42:49;;;;;;;;;;;;;;;14.79;nan;102476.66;4995277;28;20051;-85
2023/05/07 04:45:15;;;;;;;;;;;;;;;14.84;nan;102471.38;4995272;28;20403;-84
2023/05/07 04:47:40;;;;;;;;;;;;;;;14.89;nan;102476.06;4995444;28;19926;-85
2023/05/07 04:50:06;;;;;;;;;;;;;;;14.95;nan;102478.66;4998222;28;19921;-84
2023/05/07 04:52:32;;;;;;;;;;;;;;;15.02;nan;102476.63;4993642;28;20012;-84
2023/05/07 04:55:01;;;;;;;;;;;;;;;15.06;nan;102485.91;4992242;28;20469;-84
2023/05/07 04:57:27;;;;;;;;;;;;;;;15.12;nan;102486.84;4994188;28;19963;-84
2023/05/07 04:59:52;;;;;;;;;;;;;;;15.15;nan;102483.69;4997294;28;19930;-84
2023/05/07 05:02:18;;;;;;;;;;;;;;;15.23;nan;102487.88;4990937;28;20020;-84
2023/05/07 05:04:43;;;;;;;;;;;;;;;15.30;nan;102494.00;4996744;28;19972;-84
2023/05/07 05:07:08;;;;;;;;;;;;;;;15.34;nan;102498.69;4993289;28;20024;-85
2023/05/07 05:09:36;;;;;;;;;;;;;;;15.40;nan;102499.59;4988849;28;19929;-85
2023/05/07 05:12:02;;;;;;;;;;;;;;;15.49;nan;102497.38;4992463;28;19918;-84
2023/05/07 05:14:27;;;;;;;;;;;;;;;15.59;nan;102494.91;4993693;28;19926;-84
2023/05/07 05:16:53;;;;;;;;;;;;;;;15.69;nan;102498.63;4991084;28;19963;-84
2023/05/07 05:19:18;;;;;;;;;;;;;;;15.81;nan;102500.50;4991288;28;20004;-84
2023/05/07 05:21:44;;;;;;;;;;;;;;;15.92;nan;102496.91;4994522;28;19926;-84
2023/05/07 05:24:09;;;;;;;;;;;;;;;16.04;nan;102494.16;5000915;28;20447;-84
2023/05/07 05:26:34;;;;;;;;;;;;;;;16.15;nan;102493.28;5001697;28;19921;-84
2023/05/07 05:29:00;;;;;;;;;;;;;;;16.27;nan;102504.84;5011050;28;19918;-84
2023/05/07 05:31:25;;;;;;;;;;;;;;;16.31;nan;102496.00;5004662;28;19928;-85
2023/05/07 05:33:51;;;;;;;;;;;;;;;16.40;nan;102503.75;4992380;28;19925;-85
2023/05/07 05:36:16;;;;;;;;;;;;;;;16.49;nan;102515.78;4991733;28;19960;-84
2023/05/07 05:38:42;;;;;;;;;;;;;;;16.59;nan;102503.25;4993479;28;19922;-84
2023/05/07 05:41:07;;;;;;;;;;;;;;;16.69;nan;102509.91;4991998;28;19922;-84
2023/05/07 05:43:32;;;;;;;;;;;;;;;16.78;nan;102506.56;4991671;28;19964;-84
2023/05/07 05:45:58;;;;;;;;;;;;;;;16.88;nan;102509.44;4993461;28;19968;-84
2023/05/07 05:48:23;;;;;;;;;;;;;;;17.00;nan;102513.94;4992883;28;19979;-85
2023/05/07 05:50:51;;;;;;;;;;;;;;;17.02;nan;102512.63;4994485;28;20556;-84
2023/05/07 05:53:16;;;;;;;;;;;;;;;17.04;nan;102515.88;4992677;28;20016;-84
2023/05/07 05:55:42;;;;;;;;;;;;;;;17.15;nan;102512.28;4991382;28;20067;-84
2023/05/07 05:58:08;;;;;;;;;;;;;;;17.25;nan;102516.22;4989624;28;19924;-85
2023/05/07 06:00:34;;;;;;;;;;;;;;;17.35;nan;102519.03;4991293;28;20939;-84
2023/05/07 06:02:59;;;;;;;;;;;;;;;17.43;nan;102530.28;4992643;28;19921;-84
2023/05/07 06:05:24;;;;;;;;;;;;;;;17.57;nan;102525.28;4990154;28;19922;-84
2023/05/07 06:07:50;;;;;;;;;;;;;;;17.65;nan;102524.88;4992870;28;20036;-84
2023/05/07 06:10:15;;;;;;;;;;;;;;;17.73;nan;102518.19;4995613;28;20358;-84
2023/05/07 06:12:40;;;;;;;;;;;;;;;17.80;nan;102530.50;4993952;28;19941;-84
2023/05/07 06:15:06;;;;;;;;;;;;;;;17.95;nan;102527.13;4998963;28;20535;-84
2023/05/07 06:17:31;;;;;;;;;;;;;;;18.07;nan;102527.81;4996407;28;20008;-84
2023/05/07 06:19:57;;;;;;;;;;;;;;;18.19;nan;102533.09;4995177;28;19922;-85
2023/05/07 06:22:22;;;;;;;;;;;;;;;18.25;nan;102523.94;4996105;28;19918;-84
2023/05/07 06:24:47;;;;;;;;;;;;;;;18.32;nan;102524.56;4995201;28;19929;-84
2023/05/07 06:27:13;;;;;;;;;;;;;;;18.41;nan;102528.44;4992701;28;19925;-84
2023/05/07 06:29:38;;;;;;;;;;;;;;;18.43;nan;102531.69;4992771;28;19925;-84
2023/05/07 06:32:10;;;;;;;;;;;;;;;18.49;nan;102523.59;4996883;28;19943;-83
2023/05/07 06:34:35;;;;;;;;;;;;;;;18.58;nan;102530.19;4995010;28;20414;-84
2023/05/07 06:37:01;;;;;;;;;;;;;;;18.64;nan;102526.47;4993903;28;19925;-82
2023/05/07 06:39:26;;;;;;;;;;;;;;;18.67;nan;102539.53;4997266;28;19928;-84
2023/05/07 06:41:51;;;;;;;;;;;;;;;18.70;nan;102539.03;4994983;28;20040;-83
2023/05/07 06:44:17;;;;;;;;;;;;;;;18.81;nan;102542.63;4995152;28;19976;-83
2023/05/07 06:46:42;;;;;;;;;;;;;;;18.92;nan;102547.06;4994974;28;19925;-81
2023/05/07 06:49:07;;;;;;;;;;;;;;;19.02;nan;102536.25;4996836;28;19918;-82
2023/05/07 06:51:33;;;;;;;;;;;;;;;19.08;nan;102542.56;4998918;28;20386;-82
2023/05/07 06:53:59;;;;;;;;;;;;;;;19.16;nan;102542.88;4998759;28;19961;-82
2023/05/07 06:56:25;;;;;;;;;;;;;;;19.25;nan;102546.75;4995565;28;19985;-82
2023/05/07 06:58:50;;;;;;;;;;;;;;;19.39;nan;102549.84;4994493;28;19922;-84
2023/05/07 07:01:15;;;;;;;;;;;;;;;19.45;nan;102551.50;4993726;28;19925;-84
2023/05/07 07:03:41;;;;;;;;;;;;;;;19.54;nan;102544.47;4994342;28;20410;-84
2023/05/07 07:06:06;;;;;;;;;;;;;;;19.62;nan;102554.06;4993854;28;19949;-81
2023/05/07 07:08:31;;;;;;;;;;;;;;;19.65;nan;102550.78;4993405;28;19918;-83
2023/05/07 07:10:57;;;;;;;;;;;;;;;19.68;nan;102546.72;4992839;28;19972;-84
2023/05/07 07:13:22;;;;;;;;;;;;;;;19.71;nan;102546.19;4991991;28;19925;-83
2023/05/07 07:15:48;;;;;;;;;;;;;;;19.79;nan;102551.94;4990253;28;19948;-83
2023/05/07 07:18:13;;;;;;;;;;;;;;;19.89;nan;102562.84;4993434;28;19983;-82
2023/05/07 07:20:39;;;;;;;;;;;;;;;19.98;nan;102560.44;4993486;28;19936;-84
2023/05/07 07:23:04;;;;;;;;;;;;;;;20.11;nan;102551.78;4990499;28;19987;-82
2023/05/07 07:25:29;;;;;;;;;;;;;;;20.23;nan;102560.50;4992002;28;19928;-84
2023/05/07 07:27:55;;;;;;;;;;;;;;;20.33;nan;102559.72;4994176;28;20438;-82
2023/05/07 07:30:20;;;;;;;;;;;;;;;20.38;nan;102553.47;4993659;28;20344;-84
2023/05/07 07:32:45;;;;;;;;;;;;;;;20.45;nan;102556.75;4995440;28;20008;-83
2023/05/07 07:35:13;;;;;;;;;;;;;;;20.51;nan;102547.53;4995064;28;21696;-83
2023/05/07 07:37:38;;;;;;;;;;;;;;;20.49;nan;102561.41;4992395;28;19950;-83
2023/05/07 07:40:04;;;;;;;;;;;;;;;20.57;nan;102543.69;4999052;28;20020;-83
2023/05/07 07:42:29;;;;;;;;;;;;;;;20.69;nan;102559.78;4990962;28;20016;-81
2023/05/07 07:44:54;;;;;;;;;;;;;;;20.76;nan;102552.97;4990363;28;19921;-83
2023/05/07 07:47:20;;;;;;;;;;;;;;;20.87;nan;102550.25;4990900;28;20088;-82
2023/05/07 07:49:45;;;;;;;;;;;;;;;20.94;nan;102551.59;4995449;28;19932;-83
2023/05/07 07:52:11;;;;;;;;;;;;;;;20.99;nan;102550.75;4993623;28;19925;-83
2023/05/07 07:54:36;;;;;;;;;;;;;;;21.06;nan;102552.13;4988801;28;19992;-82
2023/05/07 07:57:01;;;;;;;;;;;;;;;21.07;nan;102555.66;4992337;28;19924;-82
2023/05/07 07:59:27;;;;;;;;;;;;;;;21.13;nan;102557.28;4991987;28;20586;-82
2023/05/07 08:01:55;;;;;;;;;;;;;;;21.18;nan;102557.25;4995896;28;20423;-82
2023/05/07 08:04:21;;;;;;;;;;;;;;;21.21;nan;102564.09;4992201;28;19918;-82
2023/05/07 08:06:46;;;;;;;;;;;;;;;21.27;nan;102555.66;4995229;28;20460;-84
2023/05/07 08:09:11;;;;;;;;;;;;;;;21.30;nan;102560.56;4997103;28;20352;-82
2023/05/07 08:11:37;;;;;;;;;;;;;;;21.26;nan;102564.94;4995384;28;19988;-81
2023/05/07 08:14:02;;;;;;;;;;;;;;;21.19;nan;102550.75;4994873;28;19925;-82
2023/05/07 08:16:28;;;;;;;;;;;;;;;21.29;nan;102563.56;4993008;28;20294;-82
2023/05/07 08:18:54;;;;;;;;;;;;;;;21.40;nan;102555.09;4992206;28;20303;-82
2023/05/07 08:21:20;;;;;;;;;;;;;;;21.54;nan;102554.47;4990969;28;19918;-82
2023/05/07 08:23:45;;;;;;;;;;;;;;;21.62;nan;102548.47;4992828;28;19921;-82
2023/05/07 08:26:11;;;;;;;;;;;;;;;21.71;nan;102546.78;4994202;28;19921;-82
2023/05/07 08:28:39;;;;;;;;;;;;;;;21.84;nan;102543.44;4993611;28;20414;-83
2023/05/07 08:31:04;;;;;;;;;;;;;;;22.02;nan;102556.44;4993494;28;19921;-83
2023/05/07 08:33:30;;;;;;;;;;;;;;;22.15;nan;102555.06;4989025;28;19933;-82
2023/05/07 08:35:56;;;;;;;;;;;;;;;22.21;nan;102553.91;4998998;28;19925;-82
2023/05/07 08:38:21;;;;;;;;;;;;;;;22.14;nan;102553.41;4998032;28;19918;-83
2023/05/07 08:40:47;;;;;;;;;;;;;;;22.21;nan;102547.63;5001882;28;19925;-82
2023/05/07 08:43:13;;;;;;;;;;;;;;;22.27;nan;102547.34;5002603;28;20020;-81
2023/05/07 08:45:39;;;;;;;;;;;;;;;22.45;nan;102554.03;4993867;28;19918;-83
2023/05/07 08:48:14;;;;;;;;;;;;;;;22.57;nan;102559.94;4992825;28;20354;-83
2023/05/07 08:50:39;;;;;;;;;;;;;;;22.57;nan;102562.66;4992942;28;19917;-83
2023/05/07 08:53:05;;;;;;;;;;;;;;;22.54;nan;102565.16;4990695;28;20168;-83
2023/05/07 08:55:30;;;;;;;;;;;;;;;22.57;nan;102556.38;4991746;28;19921;-82
2023/05/07 08:57:56;;;;;;;;;;;;;;;22.66;nan;102562.88;4991719;28;20284;-83
2023/05/07 09:00:21;;;;;;;;;;;;;;;22.71;nan;102551.91;4992574;28;19987;-84
2023/05/07 09:02:47;;;;;;;;;;;;;;;22.67;nan;102550.03;4993078;28;20012;-82
2023/05/07 09:05:12;;;;;;;;;;;;;;;22.62;nan;102561.81;4989913;28;20466;-83
2023/05/07 09:07:37;;;;;;;;;;;;;;;22.59;nan;102557.72;4993059;28;20375;-82
2023/05/07 09:10:04;;;;;;;;;;;;;;;22.66;nan;102562.06;4994575;28;20051;-82
2023/05/07 09:12:29;;;;;;;;;;;;;;;22.74;nan;102564.19;4992587;28;19949;-82
2023/05/07 09:14:55;;;;;;;;;;;;;;;22.89;nan;102558.63;4991780;28;19960;-83
2023/05/07 09:17:20;;;;;;;;;;;;;;;23.01;nan;102561.78;4990560;28;19918;-82
2023/05/07 09:19:45;;;;;;;;;;;;;;;23.13;nan;102567.66;4989051;28;19925;-82
2023/05/07 09:22:11;;;;;;;;;;;;;;;23.16;nan;102569.84;4993863;28;19925;-82
2023/05/07 09:24:37;;;;;;;;;;;;;;;23.13;nan;102564.94;4992540;28;20013;-82
2023/05/07 09:27:06;;;;;;;;;;;;;;;23.11;nan;102567.13;4990520;28;20189;-86
2023/05/07 09:29:37;;;;;;;;;;;;;;;23.13;nan;102575.88;4994990;28;19972;-87
2023/05/07 09:32:06;;;;;;;;;;;;;;;23.17;nan;102570.66;4995350;28;20152;-85
2023/05/07 09:34:32;;;;;;;;;;;;;;;23.25;nan;102572.75;4992054;28;19965;-87
2023/05/07 09:37:01;;;;;;;;;;;;;;;23.29;nan;102572.97;4994128;28;19926;-84
2023/05/07 09:39:38;;;;;;;;;;;;;;;23.28;nan;102565.88;4997455;28;19946;-86
2023/05/07 09:42:04;;;;;;;;;;;;;;;23.24;nan;102567.56;5005173;28;20367;-86
2023/05/07 09:44:31;;;;;;;;;;;;;;;23.19;nan;102571.19;5004562;28;20297;-85
2023/05/07 09:46:59;;;;;;;;;;;;;;;23.14;nan;102574.75;4998770;28;20383;-86
2023/05/07 09:49:27;;;;;;;;;;;;;;;23.13;nan;102570.41;4998396;28;20402;-88
2023/05/07 09:51:55;;;;;;;;;;;;;;;23.12;nan;102567.97;4996926;28;20200;-86
2023/05/07 09:54:20;;;;;;;;;;;;;;;23.14;nan;102566.56;4993419;28;19936;-85
2023/05/07 09:56:45;;;;;;;;;;;;;;;23.31;nan;102565.28;4999172;28;19921;-84
2023/05/07 09:59:15;;;;;;;;;;;;;;;23.49;nan;102568.09;5001123;28;20016;-86
2023/05/07 10:01:41;;;;;;;;;;;;;;;23.63;nan;102560.03;5001908;28;20404;-87
2023/05/07 10:04:10;;;;;;;;;;;;;;;23.93;nan;102558.03;5000214;28;19918;-85
2023/05/07 10:06:35;;;;;;;;;;;;;;;24.22;nan;102560.59;4998701;28;19921;-85
2023/05/07 10:09:01;;;;;;;;;;;;;;;24.41;nan;102548.53;4998013;28;20024;-87
2023/05/07 10:11:27;;;;;;;;;;;;;;;24.45;nan;102556.19;4999763;28;20020;-87
2023/05/07 10:13:53;;;;;;;;;;;;;;;24.38;nan;102551.88;4996948;28;20474;-87
2023/05/07 10:16:19;;;;;;;;;;;;;;;24.44;nan;102554.56;5000661;28;19922;-84
2023/05/07 10:18:45;;;;;;;;;;;;;;;24.45;nan;102557.00;5002091;28;19952;-85
2023/05/07 10:21:13;;;;;;;;;;;;;;;24.46;nan;102563.31;4999542;28;20314;-86
2023/05/07 10:23:38;;;;;;;;;;;;;;;24.54;nan;102555.19;4994339;28;19948;-87
2023/05/07 10:26:05;;;;;;;;;;;;;;;24.57;nan;102549.13;5000064;28;20372;-85
2023/05/07 10:28:36;;;;;;;;;;;;;;;24.49;nan;102558.03;4996420;28;19943;-86
2023/05/07 10:31:21;;;;;;;;;;;;;;;24.44;nan;102549.91;5000653;28;19922;-84
2023/05/07 10:33:48;;;;;;;;;;;;;;;24.35;nan;102547.00;4978764;28;20079;-85
2023/05/07 10:36:14;;;;;;;;;;;;;;;24.50;nan;102545.16;5000050;28;20414;-86
2023/05/07 10:38:40;;;;;;;;;;;;;;;24.67;nan;102551.69;4999945;28;19924;-85
2023/05/07 10:41:06;;;;;;;;;;;;;;;24.80;nan;102552.06;4999658;28;20311;-84
2023/05/07 10:43:44;;;;;;;;;;;;;;;24.92;nan;102534.00;5001805;28;20008;-84
2023/05/07 10:46:11;;;;;;;;;;;;;;;25.11;nan;102535.88;4997785;28;20388;-84
2023/05/07 10:51:40;;;;;;;;;;;;;;;25.30;nan;102544.81;4998620;28;20425;-84
2023/05/07 10:54:11;;;;;;;;;;;;;;;25.41;nan;102546.25;4999950;28;19960;-84
2023/05/07 10:56:41;;;;;;;;;;;;;;;25.56;nan;102537.72;4994998;28;19922;-84
2023/05/07 10:59:30;;;;;;;;;;;;;;;25.70;nan;102542.41;4999210;28;19964;-85
2023/05/07 11:01:57;;;;;;;;;;;;;;;25.57;nan;102533.84;4998493;28;19923;-87
2023/05/07 11:04:31;;;;;;;;;;;;;;;25.48;nan;102535.66;4993896;28;20349;-85
2023/05/07 11:07:05;;;;;;;;;;;;;;;25.53;nan;102534.78;4996045;28;19928;-85
2023/05/07 11:09:49;;;;;;;;;;;;;;;25.74;nan;102537.94;4999114;28;19947;-84
2023/05/07 11:12:14;;;;;;;;;;;;;;;25.84;nan;102537.69;4996958;28;19926;-85
2023/05/07 11:14:43;;;;;;;;;;;;;;;25.96;nan;102535.22;5001323;28;19922;-85
2023/05/07 11:17:09;;;;;;;;;;;;;;;26.12;nan;102538.44;5002921;28;19917;-85
2023/05/07 11:19:53;;;;;;;;;;;;;;;26.27;nan;102542.78;5004443;28;19948;-84
2023/05/07 11:22:45;;;;;;;;;;;;;;;26.45;nan;102525.31;5001134;28;19929;-86
2023/05/07 11:25:10;;;;;;;;;;;;;;;26.67;nan;102539.03;4996380;28;20648;-85
2023/05/07 11:27:36;;;;;;;;;;;;;;;26.77;nan;102537.97;5003462;28;19932;-84
2023/05/07 11:30:03;;;;;;;;;;;;;;;26.74;nan;102536.66;5006027;28;19948;-88
2023/05/07 11:32:30;;;;;;;;;;;;;;;26.78;nan;102526.66;5000198;28;19925;-86
2023/05/07 11:35:07;;;;;;;;;;;;;;;26.86;nan;102532.50;4997707;28;19929;-85
2023/05/07 11:37:33;;;;;;;;;;;;;;;26.84;nan;102526.53;4993916;28;19929;-86
2023/05/07 11:40:09;;;;;;;;;;;;;;;26.71;nan;102531.78;4999517;28;19917;-86
2023/05/07 11:42:35;;;;;;;;;;;;;;;26.55;nan;102526.97;4997849;28;20051;-86
2023/05/07 11:45:01;;;;;;;;;;;;;;;26.48;nan;102535.69;4998312;28;19921;-85
2023/05/07 11:47:30;;;;;;;;;;;;;;;26.48;nan;102532.94;4992042;28;19921;-85
2023/05/07 11:49:55;;;;;;;;;;;;;;;26.54;nan;102526.16;4992413;28;19918;-84
2023/05/07 11:52:21;;;;;;;;;;;;;;;26.65;nan;102540.47;4992487;28;19928;-85
2023/05/07 11:54:50;;;;;;;;;;;;;;;26.70;nan;102532.91;4993339;28;19929;-87
2023/05/07 11:57:15;;;;;;;;;;;;;;;26.72;nan;102535.34;4993906;28;19921;-85
2023/05/07 11:59:41;;;;;;;;;;;;;;;26.71;nan;102536.47;4993396;28;20300;-85
2023/05/07 12:02:07;;;;;;;;;;;;;;;26.74;nan;102539.41;4991944;28;19918;-85
2023/05/07 12:04:32;;;;;;;;;;;;;;;26.84;nan;102543.03;4993788;28;20003;-84
2023/05/07 12:07:00;;;;;;;;;;;;;;;26.90;nan;102528.81;4991533;28;19960;-85
2023/05/07 12:09:25;;;;;;;;;;;;;;;26.97;nan;102536.63;4995539;28;19918;-86
2023/05/07 12:11:51;;;;;;;;;;;;;;;27.14;nan;102536.72;4993000;28;19921;-85
2023/05/07 12:14:17;;;;;;;;;;;;;;;27.26;nan;102531.41;5010669;28;19950;-85
2023/05/07 12:16:42;;;;;;;;;;;;;;;27.29;nan;102536.31;4994655;28;20168;-85
2023/05/07 12:19:12;;;;;;;;;;;;;;;27.37;nan;102530.00;4993726;28;19928;-85
2023/05/07 12:21:37;;;;;;;;;;;;;;;27.52;nan;102531.50;5006711;28;19922;-85
2023/05/07 12:24:03;;;;;;;;;;;;;;;27.57;nan;102533.31;4994102;28;19921;-86
2023/05/07 12:26:28;;;;;;;;;;;;;;;27.61;nan;102535.09;4991540;28;19928;-85
2023/05/07 12:28:53;;;;;;;;;;;;;;;27.66;nan;102540.50;4994375;28;19947;-84
2023/05/07 12:31:19;;;;;;;;;;;;;;;27.76;nan;102541.31;4994333;28;20008;-84
2023/05/07 12:33:45;;;;;;;;;;;;;;;27.91;nan;102544.41;4993973;28;19937;-86
2023/05/07 12:36:12;;;;;;;;;;;;;;;28.03;nan;102546.53;4990953;28;20447;-86
2023/05/07 12:38:38;;;;;;;;;;;;;;;28.03;nan;102545.72;4993895;28;20380;-84
2023/05/07 12:41:04;;;;;;;;;;;;;;;27.94;nan;102553.97;4990310;28;20482;-84
2023/05/07 12:43:30;;;;;;;;;;;;;;;27.80;nan;102545.03;4993587;28;20299;-85
2023/05/07 12:45:56;;;;;;;;;;;;;;;27.67;nan;102544.06;4991009;28;19917;-85
2023/05/07 12:48:22;;;;;;;;;;;;;;;27.67;nan;102541.31;4992076;28;20457;-86
2023/05/07 12:50:51;;;;;;;;;;;;;;;27.63;nan;102545.81;4991419;28;20136;-84
2023/05/07 12:53:16;;;;;;;;;;;;;;;27.58;nan;102534.91;4991417;28;20354;-85
2023/05/07 12:55:45;;;;;;;;;;;;;;;27.73;nan;102525.44;4989512;28;19975;-86
2023/05/07 12:58:18;;;;;;;;;;;;;;;27.89;nan;102541.16;4993995;28;19921;-85